PAYA/YAK METAR and TAF weather

Enter ICAO airport designator
Station Type Date Time Source
PAYA METAR 2019/07/20 19:53 UTC NOAA

PAYA 201953Z AUTO 14004KT 10SM BKN013 OVC022 16/14 A3012 RMK AO2 SLP199 T01610139 TSNO $


Station Type Date Time Source
PAYA Decoded METAR 2019/07/20 19:53 UTC NOAA

YAKUTAT AIRPORT, AK, United States (PAYA) 59-30N 139-40W 9M
Jul 20, 2019 - 03:53 PM EDT / 2019.07.20 1953 UTC
Wind: from the SE (140 degrees) at 5 MPH (4 KT):0
Visibility: 10 mile(s):0
Sky conditions: overcast
Temperature: 61.0 F (16.1 C)
Dew Point: 57.0 F (13.9 C)
Relative Humidity: 86%
Pressure (altimeter): 30.12 in. Hg (1019 hPa)
ob: PAYA 201953Z AUTO 14004KT 10SM BKN013 OVC022 16/14 A3012 RMK AO2 SLP199 T01610139 TSNO
cycle: 20

Station Type Date Time Source
PAYA TAF 2019/07/20 18:42 UTC NOAA

TAF PAYA 201740Z 2018/2118 09003KT P6SM BKN005 OVC020
FM202000 13005KT P6SM SCT005 OVC015
FM210300 13005KT 5SM -RA BR SCT004 OVC010
FM210600 13004KT 3SM -RA BR BKN004 OVC008
FM211200 VRB02KT 2SM -DZ BR OVC003
AMD LTD TO CLD VIS AND WIND

Example: see airport list